<?xml version="1.0" encoding="UTF-8" standalone="no" ?>
<gpx xmlns="http://www.topografix.com/GPX/1/1" xmlns:xsi="http://www.w3.org/2001/XMLSchema-instance" xsi:schemaLocation="http://www.topografix.com/GPX/1/1 http://www.topografix.com/GPX/1/1/gpx.xsd" version="1.1" creator="VisuGPX - https://www.visugpx.com">
  <metadata>
    <name>Parilly 14km</name>
    <desc><![CDATA[un ptit footing a l allure sympa]]></desc>
  </metadata>
  <trk>
    <name><![CDATA[Sequence 1]]></name>
    <trkseg>
      <trkpt lat="45.7162" lon="4.89618">
        <ele>211</ele>
        <time>2017-02-28T17:06:15Z</time>
      </trkpt>
      <trkpt lat="45.7162" lon="4.89622">
        <ele>214</ele>
        <time>2017-02-28T17:06:20Z</time>
      </trkpt>
      <trkpt lat="45.71621" lon="4.89621">
        <ele>212</ele>
        <time>2017-02-28T17:06:23Z</time>
      </trkpt>
      <trkpt lat="45.71622" lon="4.89618">
        <ele>206</ele>
        <time>2017-02-28T17:06:33Z</time>
      </trkpt>
      <trkpt lat="45.71622" lon="4.89617">
        <ele>205</ele>
        <time>2017-02-28T17:06:35Z</time>
      </trkpt>
      <trkpt lat="45.71621" lon="4.89613">
        <ele>201</ele>
        <time>2017-02-28T17:06:42Z</time>
      </trkpt>
      <trkpt lat="45.71634" lon="4.89564">
        <ele>186</ele>
        <time>2017-02-28T17:06:49Z</time>
      </trkpt>
      <trkpt lat="45.71647" lon="4.89537">
        <ele>179</ele>
        <time>2017-02-28T17:06:56Z</time>
      </trkpt>
      <trkpt lat="45.71656" lon="4.89524">
        <ele>180</ele>
        <time>2017-02-28T17:07:00Z</time>
      </trkpt>
      <trkpt lat="45.71667" lon="4.895">
        <ele>174</ele>
        <time>2017-02-28T17:07:07Z</time>
      </trkpt>
      <trkpt lat="45.71673" lon="4.89486">
        <ele>174</ele>
        <time>2017-02-28T17:07:11Z</time>
      </trkpt>
      <trkpt lat="45.71685" lon="4.89461">
        <ele>172</ele>
        <time>2017-02-28T17:07:17Z</time>
      </trkpt>
      <trkpt lat="45.71698" lon="4.89434">
        <ele>173</ele>
        <time>2017-02-28T17:07:26Z</time>
      </trkpt>
      <trkpt lat="45.717" lon="4.89423">
        <ele>173</ele>
        <time>2017-02-28T17:07:29Z</time>
      </trkpt>
      <trkpt lat="45.7171" lon="4.89389">
        <ele>170</ele>
        <time>2017-02-28T17:07:37Z</time>
      </trkpt>
      <trkpt lat="45.71714" lon="4.89377">
        <ele>165</ele>
        <time>2017-02-28T17:07:41Z</time>
      </trkpt>
      <trkpt lat="45.71723" lon="4.89356">
        <ele>157</ele>
        <time>2017-02-28T17:07:47Z</time>
      </trkpt>
      <trkpt lat="45.71749" lon="4.89341">
        <ele>155</ele>
        <time>2017-02-28T17:07:57Z</time>
      </trkpt>
      <trkpt lat="45.71771" lon="4.89332">
        <ele>158</ele>
        <time>2017-02-28T17:08:04Z</time>
      </trkpt>
      <trkpt lat="45.71775" lon="4.8933">
        <ele>160</ele>
        <time>2017-02-28T17:08:06Z</time>
      </trkpt>
      <trkpt lat="45.71804" lon="4.89325">
        <ele>160</ele>
        <time>2017-02-28T17:08:16Z</time>
      </trkpt>
      <trkpt lat="45.71818" lon="4.89323">
        <ele>160</ele>
        <time>2017-02-28T17:08:20Z</time>
      </trkpt>
      <trkpt lat="45.7183" lon="4.89324">
        <ele>157</ele>
        <time>2017-02-28T17:08:24Z</time>
      </trkpt>
      <trkpt lat="45.71846" lon="4.89337">
        <ele>155</ele>
        <time>2017-02-28T17:08:30Z</time>
      </trkpt>
      <trkpt lat="45.71857" lon="4.89352">
        <ele>160</ele>
        <time>2017-02-28T17:08:35Z</time>
      </trkpt>
      <trkpt lat="45.71863" lon="4.8936">
        <ele>161</ele>
        <time>2017-02-28T17:08:41Z</time>
      </trkpt>
      <trkpt lat="45.7189" lon="4.89391">
        <ele>162</ele>
        <time>2017-02-28T17:08:51Z</time>
      </trkpt>
      <trkpt lat="45.71906" lon="4.89415">
        <ele>160</ele>
        <time>2017-02-28T17:08:57Z</time>
      </trkpt>
      <trkpt lat="45.7191" lon="4.89424">
        <ele>159</ele>
        <time>2017-02-28T17:08:59Z</time>
      </trkpt>
      <trkpt lat="45.7192" lon="4.89451">
        <ele>156</ele>
        <time>2017-02-28T17:09:05Z</time>
      </trkpt>
      <trkpt lat="45.71925" lon="4.89488">
        <ele>163</ele>
        <time>2017-02-28T17:09:14Z</time>
      </trkpt>
      <trkpt lat="45.71922" lon="4.89507">
        <ele>169</ele>
        <time>2017-02-28T17:09:19Z</time>
      </trkpt>
      <trkpt lat="45.71918" lon="4.89525">
        <ele>172</ele>
        <time>2017-02-28T17:09:23Z</time>
      </trkpt>
      <trkpt lat="45.71906" lon="4.89545">
        <ele>177</ele>
        <time>2017-02-28T17:09:30Z</time>
      </trkpt>
      <trkpt lat="45.71891" lon="4.89552">
        <ele>180</ele>
        <time>2017-02-28T17:09:35Z</time>
      </trkpt>
      <trkpt lat="45.71871" lon="4.89563">
        <ele>181</ele>
        <time>2017-02-28T17:09:41Z</time>
      </trkpt>
      <trkpt lat="45.71841" lon="4.89562">
        <ele>182</ele>
        <time>2017-02-28T17:09:51Z</time>
      </trkpt>
      <trkpt lat="45.71825" lon="4.89568">
        <ele>189</ele>
        <time>2017-02-28T17:09:56Z</time>
      </trkpt>
      <trkpt lat="45.71816" lon="4.89568">
        <ele>192</ele>
        <time>2017-02-28T17:09:59Z</time>
      </trkpt>
      <trkpt lat="45.71799" lon="4.89571">
        <ele>190</ele>
        <time>2017-02-28T17:10:05Z</time>
      </trkpt>
      <trkpt lat="45.71772" lon="4.89588">
        <ele>193</ele>
        <time>2017-02-28T17:10:14Z</time>
      </trkpt>
      <trkpt lat="45.71765" lon="4.89591">
        <ele>193</ele>
        <time>2017-02-28T17:10:17Z</time>
      </trkpt>
      <trkpt lat="45.71749" lon="4.8959">
        <ele>198</ele>
        <time>2017-02-28T17:10:23Z</time>
      </trkpt>
      <trkpt lat="45.71724" lon="4.89598">
        <ele>194</ele>
        <time>2017-02-28T17:10:31Z</time>
      </trkpt>
      <trkpt lat="45.71691" lon="4.89612">
        <ele>188</ele>
        <time>2017-02-28T17:10:40Z</time>
      </trkpt>
      <trkpt lat="45.71688" lon="4.89612">
        <ele>187</ele>
        <time>2017-02-28T17:10:41Z</time>
      </trkpt>
      <trkpt lat="45.7167" lon="4.89618">
        <ele>185</ele>
        <time>2017-02-28T17:10:47Z</time>
      </trkpt>
      <trkpt lat="45.71634" lon="4.89631">
        <ele>183</ele>
        <time>2017-02-28T17:10:58Z</time>
      </trkpt>
      <trkpt lat="45.71624" lon="4.89638">
        <ele>184</ele>
        <time>2017-02-28T17:11:01Z</time>
      </trkpt>
      <trkpt lat="45.71632" lon="4.89644">
        <ele>183</ele>
        <time>2017-02-28T17:11:06Z</time>
      </trkpt>
      <trkpt lat="45.71647" lon="4.89641">
        <ele>178</ele>
        <time>2017-02-28T17:11:11Z</time>
      </trkpt>
      <trkpt lat="45.71673" lon="4.89637">
        <ele>178</ele>
        <time>2017-02-28T17:11:21Z</time>
      </trkpt>
      <trkpt lat="45.71679" lon="4.89634">
        <ele>174</ele>
        <time>2017-02-28T17:11:23Z</time>
      </trkpt>
      <trkpt lat="45.71701" lon="4.89626">
        <ele>174</ele>
        <time>2017-02-28T17:11:31Z</time>
      </trkpt>
      <trkpt lat="45.71717" lon="4.89622">
        <ele>179</ele>
        <time>2017-02-28T17:11:36Z</time>
      </trkpt>
      <trkpt lat="45.71735" lon="4.89617">
        <ele>171</ele>
        <time>2017-02-28T17:11:41Z</time>
      </trkpt>
      <trkpt lat="45.7176" lon="4.89609">
        <ele>174</ele>
        <time>2017-02-28T17:11:49Z</time>
      </trkpt>
      <trkpt lat="45.71773" lon="4.89605">
        <ele>172</ele>
        <time>2017-02-28T17:11:53Z</time>
      </trkpt>
      <trkpt lat="45.71805" lon="4.89595">
        <ele>167</ele>
        <time>2017-02-28T17:12:02Z</time>
      </trkpt>
      <trkpt lat="45.71824" lon="4.89587">
        <ele>163</ele>
        <time>2017-02-28T17:12:08Z</time>
      </trkpt>
      <trkpt lat="45.71835" lon="4.89585">
        <ele>160</ele>
        <time>2017-02-28T17:12:11Z</time>
      </trkpt>
      <trkpt lat="45.7186" lon="4.89581">
        <ele>156</ele>
        <time>2017-02-28T17:12:19Z</time>
      </trkpt>
      <trkpt lat="45.71872" lon="4.89578">
        <ele>157</ele>
        <time>2017-02-28T17:12:23Z</time>
      </trkpt>
      <trkpt lat="45.71898" lon="4.89569">
        <ele>161</ele>
        <time>2017-02-28T17:12:31Z</time>
      </trkpt>
      <trkpt lat="45.71918" lon="4.89561">
        <ele>160</ele>
        <time>2017-02-28T17:12:37Z</time>
      </trkpt>
      <trkpt lat="45.7193" lon="4.89557">
        <ele>159</ele>
        <time>2017-02-28T17:12:41Z</time>
      </trkpt>
      <trkpt lat="45.7196" lon="4.89544">
        <ele>161</ele>
        <time>2017-02-28T17:12:50Z</time>
      </trkpt>
      <trkpt lat="45.71976" lon="4.89535">
        <ele>164</ele>
        <time>2017-02-28T17:12:55Z</time>
      </trkpt>
      <trkpt lat="45.71988" lon="4.89533">
        <ele>170</ele>
        <time>2017-02-28T17:12:59Z</time>
      </trkpt>
      <trkpt lat="45.7202" lon="4.89514">
        <ele>161</ele>
        <time>2017-02-28T17:13:10Z</time>
      </trkpt>
      <trkpt lat="45.72024" lon="4.89511">
        <ele>161</ele>
        <time>2017-02-28T17:13:11Z</time>
      </trkpt>
      <trkpt lat="45.72044" lon="4.89507">
        <ele>157</ele>
        <time>2017-02-28T17:13:17Z</time>
      </trkpt>
      <trkpt lat="45.72066" lon="4.89497">
        <ele>156</ele>
        <time>2017-02-28T17:13:23Z</time>
      </trkpt>
      <trkpt lat="45.721" lon="4.89489">
        <ele>165</ele>
        <time>2017-02-28T17:13:34Z</time>
      </trkpt>
      <trkpt lat="45.72112" lon="4.89488">
        <ele>172</ele>
        <time>2017-02-28T17:13:38Z</time>
      </trkpt>
      <trkpt lat="45.7213" lon="4.89479">
        <ele>170</ele>
        <time>2017-02-28T17:13:43Z</time>
      </trkpt>
      <trkpt lat="45.72144" lon="4.89478">
        <ele>169</ele>
        <time>2017-02-28T17:13:47Z</time>
      </trkpt>
      <trkpt lat="45.72167" lon="4.89491">
        <ele>173</ele>
        <time>2017-02-28T17:13:55Z</time>
      </trkpt>
      <trkpt lat="45.72185" lon="4.89501">
        <ele>177</ele>
        <time>2017-02-28T17:14:00Z</time>
      </trkpt>
      <trkpt lat="45.722" lon="4.89514">
        <ele>177</ele>
        <time>2017-02-28T17:14:05Z</time>
      </trkpt>
      <trkpt lat="45.7222" lon="4.89529">
        <ele>172</ele>
        <time>2017-02-28T17:14:13Z</time>
      </trkpt>
      <trkpt lat="45.72249" lon="4.89552">
        <ele>166</ele>
        <time>2017-02-28T17:14:22Z</time>
      </trkpt>
      <trkpt lat="45.72252" lon="4.89552">
        <ele>164</ele>
        <time>2017-02-28T17:14:23Z</time>
      </trkpt>
      <trkpt lat="45.72267" lon="4.89572">
        <ele>164</ele>
        <time>2017-02-28T17:14:29Z</time>
      </trkpt>
      <trkpt lat="45.72281" lon="4.89596">
        <ele>164</ele>
        <time>2017-02-28T17:14:35Z</time>
      </trkpt>
      <trkpt lat="45.72294" lon="4.89634">
        <ele>157</ele>
        <time>2017-02-28T17:14:43Z</time>
      </trkpt>
      <trkpt lat="45.723" lon="4.8965">
        <ele>156</ele>
        <time>2017-02-28T17:14:47Z</time>
      </trkpt>
      <trkpt lat="45.72323" lon="4.897">
        <ele>161</ele>
        <time>2017-02-28T17:14:58Z</time>
      </trkpt>
      <trkpt lat="45.72327" lon="4.89709">
        <ele>167</ele>
        <time>2017-02-28T17:15:00Z</time>
      </trkpt>
      <trkpt lat="45.72331" lon="4.89728">
        <ele>170</ele>
        <time>2017-02-28T17:15:05Z</time>
      </trkpt>
      <trkpt lat="45.72318" lon="4.89766">
        <ele>172</ele>
        <time>2017-02-28T17:15:14Z</time>
      </trkpt>
      <trkpt lat="45.72312" lon="4.8978">
        <ele>175</ele>
        <time>2017-02-28T17:15:18Z</time>
      </trkpt>
      <trkpt lat="45.72308" lon="4.898">
        <ele>175</ele>
        <time>2017-02-28T17:15:23Z</time>
      </trkpt>
      <trkpt lat="45.72303" lon="4.89821">
        <ele>175</ele>
        <time>2017-02-28T17:15:29Z</time>
      </trkpt>
      <trkpt lat="45.72296" lon="4.89848">
        <ele>177</ele>
        <time>2017-02-28T17:15:35Z</time>
      </trkpt>
      <trkpt lat="45.72288" lon="4.8987">
        <ele>179</ele>
        <time>2017-02-28T17:15:41Z</time>
      </trkpt>
      <trkpt lat="45.72287" lon="4.89895">
        <ele>181</ele>
        <time>2017-02-28T17:15:47Z</time>
      </trkpt>
      <trkpt lat="45.72281" lon="4.89933">
        <ele>183</ele>
        <time>2017-02-28T17:15:55Z</time>
      </trkpt>
      <trkpt lat="45.72272" lon="4.89951">
        <ele>186</ele>
        <time>2017-02-28T17:16:00Z</time>
      </trkpt>
      <trkpt lat="45.72267" lon="4.89969">
        <ele>190</ele>
        <time>2017-02-28T17:16:05Z</time>
      </trkpt>
      <trkpt lat="45.72253" lon="4.90008">
        <ele>188</ele>
        <time>2017-02-28T17:16:14Z</time>
      </trkpt>
      <trkpt lat="45.72244" lon="4.90024">
        <ele>188</ele>
        <time>2017-02-28T17:16:17Z</time>
      </trkpt>
      <trkpt lat="45.72233" lon="4.90057">
        <ele>190</ele>
        <time>2017-02-28T17:16:23Z</time>
      </trkpt>
      <trkpt lat="45.72224" lon="4.90086">
        <ele>186</ele>
        <time>2017-02-28T17:16:29Z</time>
      </trkpt>
      <trkpt lat="45.72215" lon="4.90129">
        <ele>188</ele>
        <time>2017-02-28T17:16:38Z</time>
      </trkpt>
      <trkpt lat="45.72209" lon="4.90116">
        <ele>183</ele>
        <time>2017-02-28T17:16:43Z</time>
      </trkpt>
      <trkpt lat="45.72208" lon="4.90098">
        <ele>183</ele>
        <time>2017-02-28T17:16:48Z</time>
      </trkpt>
      <trkpt lat="45.72205" lon="4.90061">
        <ele>182</ele>
        <time>2017-02-28T17:16:57Z</time>
      </trkpt>
      <trkpt lat="45.72206" lon="4.90055">
        <ele>173</ele>
        <time>2017-02-28T17:16:59Z</time>
      </trkpt>
      <trkpt lat="45.722" lon="4.90022">
        <ele>174</ele>
        <time>2017-02-28T17:17:05Z</time>
      </trkpt>
      <trkpt lat="45.72198" lon="4.89994">
        <ele>175</ele>
        <time>2017-02-28T17:17:11Z</time>
      </trkpt>
      <trkpt lat="45.72197" lon="4.89949">
        <ele>172</ele>
        <time>2017-02-28T17:17:19Z</time>
      </trkpt>
      <trkpt lat="45.72212" lon="4.89903">
        <ele>147</ele>
        <time>2017-02-28T17:17:28Z</time>
      </trkpt>
      <trkpt lat="45.72209" lon="4.8988">
        <ele>152</ele>
        <time>2017-02-28T17:17:34Z</time>
      </trkpt>
      <trkpt lat="45.7221" lon="4.89875">
        <ele>152</ele>
        <time>2017-02-28T17:17:35Z</time>
      </trkpt>
      <trkpt lat="45.72212" lon="4.89843">
        <ele>155</ele>
        <time>2017-02-28T17:17:41Z</time>
      </trkpt>
      <trkpt lat="45.72214" lon="4.89813">
        <ele>157</ele>
        <time>2017-02-28T17:17:47Z</time>
      </trkpt>
      <trkpt lat="45.72218" lon="4.89783">
        <ele>155</ele>
        <time>2017-02-28T17:17:53Z</time>
      </trkpt>
      <trkpt lat="45.7221" lon="4.89732">
        <ele>157</ele>
        <time>2017-02-28T17:18:04Z</time>
      </trkpt>
      <trkpt lat="45.72211" lon="4.89728">
        <ele>158</ele>
        <time>2017-02-28T17:18:05Z</time>
      </trkpt>
      <trkpt lat="45.72198" lon="4.8974">
        <ele>157</ele>
        <time>2017-02-28T17:18:14Z</time>
      </trkpt>
      <trkpt lat="45.72191" lon="4.8975">
        <ele>157</ele>
        <time>2017-02-28T17:18:17Z</time>
      </trkpt>
      <trkpt lat="45.72179" lon="4.89797">
        <ele>168</ele>
        <time>2017-02-28T17:18:28Z</time>
      </trkpt>
      <trkpt lat="45.72173" lon="4.89821">
        <ele>171</ele>
        <time>2017-02-28T17:18:33Z</time>
      </trkpt>
      <trkpt lat="45.72171" lon="4.89829">
        <ele>170</ele>
        <time>2017-02-28T17:18:35Z</time>
      </trkpt>
      <trkpt lat="45.7217" lon="4.89854">
        <ele>170</ele>
        <time>2017-02-28T17:18:41Z</time>
      </trkpt>
      <trkpt lat="45.72161" lon="4.89891">
        <ele>169</ele>
        <time>2017-02-28T17:18:49Z</time>
      </trkpt>
      <trkpt lat="45.72159" lon="4.89911">
        <ele>170</ele>
        <time>2017-02-28T17:18:53Z</time>
      </trkpt>
      <trkpt lat="45.72156" lon="4.89949">
        <ele>170</ele>
        <time>2017-02-28T17:19:01Z</time>
      </trkpt>
      <trkpt lat="45.72158" lon="4.89976">
        <ele>167</ele>
        <time>2017-02-28T17:19:07Z</time>
      </trkpt>
      <trkpt lat="45.72161" lon="4.90021">
        <ele>169</ele>
        <time>2017-02-28T17:19:15Z</time>
      </trkpt>
      <trkpt lat="45.7217" lon="4.90059">
        <ele>175</ele>
        <time>2017-02-28T17:19:22Z</time>
      </trkpt>
      <trkpt lat="45.7217" lon="4.90061">
        <ele>177</ele>
        <time>2017-02-28T17:19:23Z</time>
      </trkpt>
      <trkpt lat="45.72181" lon="4.90105">
        <ele>185</ele>
        <time>2017-02-28T17:19:32Z</time>
      </trkpt>
      <trkpt lat="45.72182" lon="4.90115">
        <ele>183</ele>
        <time>2017-02-28T17:19:35Z</time>
      </trkpt>
      <trkpt lat="45.7218" lon="4.90144">
        <ele>194</ele>
        <time>2017-02-28T17:19:43Z</time>
      </trkpt>
      <trkpt lat="45.72181" lon="4.90163">
        <ele>202</ele>
        <time>2017-02-28T17:19:47Z</time>
      </trkpt>
      <trkpt lat="45.72186" lon="4.90222">
        <ele>213</ele>
        <time>2017-02-28T17:19:58Z</time>
      </trkpt>
      <trkpt lat="45.72184" lon="4.90226">
        <ele>213</ele>
        <time>2017-02-28T17:19:59Z</time>
      </trkpt>
      <trkpt lat="45.72176" lon="4.9025">
        <ele>217</ele>
        <time>2017-02-28T17:20:05Z</time>
      </trkpt>
      <trkpt lat="45.72163" lon="4.90285">
        <ele>223</ele>
        <time>2017-02-28T17:20:13Z</time>
      </trkpt>
      <trkpt lat="45.72161" lon="4.90303">
        <ele>221</ele>
        <time>2017-02-28T17:20:17Z</time>
      </trkpt>
      <trkpt lat="45.7216" lon="4.90334">
        <ele>223</ele>
        <time>2017-02-28T17:20:23Z</time>
      </trkpt>
      <trkpt lat="45.72162" lon="4.90369">
        <ele>222</ele>
        <time>2017-02-28T17:20:30Z</time>
      </trkpt>
      <trkpt lat="45.72174" lon="4.90385">
        <ele>214</ele>
        <time>2017-02-28T17:20:35Z</time>
      </trkpt>
      <trkpt lat="45.7219" lon="4.90403">
        <ele>214</ele>
        <time>2017-02-28T17:20:41Z</time>
      </trkpt>
      <trkpt lat="45.722" lon="4.90418">
        <ele>218</ele>
        <time>2017-02-28T17:20:47Z</time>
      </trkpt>
      <trkpt lat="45.72215" lon="4.90437">
        <ele>218</ele>
        <time>2017-02-28T17:20:53Z</time>
      </trkpt>
      <trkpt lat="45.72229" lon="4.90454">
        <ele>215</ele>
        <time>2017-02-28T17:20:59Z</time>
      </trkpt>
      <trkpt lat="45.72243" lon="4.9048">
        <ele>216</ele>
        <time>2017-02-28T17:21:06Z</time>
      </trkpt>
      <trkpt lat="45.72262" lon="4.90502">
        <ele>214</ele>
        <time>2017-02-28T17:21:11Z</time>
      </trkpt>
      <trkpt lat="45.72289" lon="4.9055">
        <ele>201</ele>
        <time>2017-02-28T17:21:22Z</time>
      </trkpt>
      <trkpt lat="45.7229" lon="4.90553">
        <ele>200</ele>
        <time>2017-02-28T17:21:23Z</time>
      </trkpt>
      <trkpt lat="45.72309" lon="4.90585">
        <ele>200</ele>
        <time>2017-02-28T17:21:31Z</time>
      </trkpt>
      <trkpt lat="45.72323" lon="4.90606">
        <ele>197</ele>
        <time>2017-02-28T17:21:36Z</time>
      </trkpt>
      <trkpt lat="45.72328" lon="4.90628">
        <ele>196</ele>
        <time>2017-02-28T17:21:41Z</time>
      </trkpt>
      <trkpt lat="45.72336" lon="4.90666">
        <ele>200</ele>
        <time>2017-02-28T17:21:48Z</time>
      </trkpt>
      <trkpt lat="45.72349" lon="4.90708">
        <ele>201</ele>
        <time>2017-02-28T17:21:57Z</time>
      </trkpt>
      <trkpt lat="45.72352" lon="4.90716">
        <ele>202</ele>
        <time>2017-02-28T17:21:59Z</time>
      </trkpt>
      <trkpt lat="45.72352" lon="4.90781">
        <ele>201</ele>
        <time>2017-02-28T17:22:10Z</time>
      </trkpt>
      <trkpt lat="45.72353" lon="4.90787">
        <ele>201</ele>
        <time>2017-02-28T17:22:11Z</time>
      </trkpt>
      <trkpt lat="45.72364" lon="4.90819">
        <ele>201</ele>
        <time>2017-02-28T17:22:17Z</time>
      </trkpt>
      <trkpt lat="45.72373" lon="4.90862">
        <ele>204</ele>
        <time>2017-02-28T17:22:27Z</time>
      </trkpt>
      <trkpt lat="45.7237" lon="4.90861">
        <ele>210</ele>
        <time>2017-02-28T17:22:29Z</time>
      </trkpt>
      <trkpt lat="45.72382" lon="4.90883">
        <ele>213</ele>
        <time>2017-02-28T17:22:35Z</time>
      </trkpt>
      <trkpt lat="45.72386" lon="4.90923">
        <ele>213</ele>
        <time>2017-02-28T17:22:44Z</time>
      </trkpt>
      <trkpt lat="45.72371" lon="4.90927">
        <ele>211</ele>
        <time>2017-02-28T17:22:47Z</time>
      </trkpt>
      <trkpt lat="45.72359" lon="4.90904">
        <ele>211</ele>
        <time>2017-02-28T17:22:53Z</time>
      </trkpt>
      <trkpt lat="45.7234" lon="4.9086">
        <ele>219</ele>
        <time>2017-02-28T17:23:03Z</time>
      </trkpt>
      <trkpt lat="45.72336" lon="4.90847">
        <ele>221</ele>
        <time>2017-02-28T17:23:06Z</time>
      </trkpt>
      <trkpt lat="45.72327" lon="4.90826">
        <ele>217</ele>
        <time>2017-02-28T17:23:11Z</time>
      </trkpt>
      <trkpt lat="45.72317" lon="4.90803">
        <ele>219</ele>
        <time>2017-02-28T17:23:17Z</time>
      </trkpt>
      <trkpt lat="45.72311" lon="4.90777">
        <ele>210</ele>
        <time>2017-02-28T17:23:23Z</time>
      </trkpt>
      <trkpt lat="45.72301" lon="4.90744">
        <ele>208</ele>
        <time>2017-02-28T17:23:31Z</time>
      </trkpt>
      <trkpt lat="45.72286" lon="4.90712">
        <ele>201</ele>
        <time>2017-02-28T17:23:38Z</time>
      </trkpt>
      <trkpt lat="45.72285" lon="4.90696">
        <ele>193</ele>
        <time>2017-02-28T17:23:41Z</time>
      </trkpt>
      <trkpt lat="45.72273" lon="4.90663">
        <ele>200</ele>
        <time>2017-02-28T17:23:49Z</time>
      </trkpt>
      <trkpt lat="45.72267" lon="4.9063">
        <ele>184</ele>
        <time>2017-02-28T17:23:55Z</time>
      </trkpt>
      <trkpt lat="45.72263" lon="4.9061">
        <ele>183</ele>
        <time>2017-02-28T17:23:59Z</time>
      </trkpt>
      <trkpt lat="45.72246" lon="4.90566">
        <ele>180</ele>
        <time>2017-02-28T17:24:09Z</time>
      </trkpt>
      <trkpt lat="45.72241" lon="4.90559">
        <ele>180</ele>
        <time>2017-02-28T17:24:11Z</time>
      </trkpt>
      <trkpt lat="45.72235" lon="4.90531">
        <ele>180</ele>
        <time>2017-02-28T17:24:17Z</time>
      </trkpt>
      <trkpt lat="45.72215" lon="4.90478">
        <ele>178</ele>
        <time>2017-02-28T17:24:28Z</time>
      </trkpt>
      <trkpt lat="45.72214" lon="4.90473">
        <ele>177</ele>
        <time>2017-02-28T17:24:29Z</time>
      </trkpt>
      <trkpt lat="45.72193" lon="4.90427">
        <ele>177</ele>
        <time>2017-02-28T17:24:39Z</time>
      </trkpt>
      <trkpt lat="45.72184" lon="4.90414">
        <ele>177</ele>
        <time>2017-02-28T17:24:43Z</time>
      </trkpt>
      <trkpt lat="45.72178" lon="4.90398">
        <ele>178</ele>
        <time>2017-02-28T17:24:47Z</time>
      </trkpt>
      <trkpt lat="45.72169" lon="4.90369">
        <ele>178</ele>
        <time>2017-02-28T17:24:53Z</time>
      </trkpt>
      <trkpt lat="45.72158" lon="4.90345">
        <ele>181</ele>
        <time>2017-02-28T17:25:01Z</time>
      </trkpt>
      <trkpt lat="45.72153" lon="4.90327">
        <ele>184</ele>
        <time>2017-02-28T17:25:05Z</time>
      </trkpt>
      <trkpt lat="45.72139" lon="4.90294">
        <ele>169</ele>
        <time>2017-02-28T17:25:14Z</time>
      </trkpt>
      <trkpt lat="45.72134" lon="4.90281">
        <ele>166</ele>
        <time>2017-02-28T17:25:17Z</time>
      </trkpt>
      <trkpt lat="45.72126" lon="4.90257">
        <ele>166</ele>
        <time>2017-02-28T17:25:23Z</time>
      </trkpt>
      <trkpt lat="45.72116" lon="4.90235">
        <ele>159</ele>
        <time>2017-02-28T17:25:29Z</time>
      </trkpt>
      <trkpt lat="45.72088" lon="4.90215">
        <ele>158</ele>
        <time>2017-02-28T17:25:37Z</time>
      </trkpt>
      <trkpt lat="45.72073" lon="4.90205">
        <ele>162</ele>
        <time>2017-02-28T17:25:42Z</time>
      </trkpt>
      <trkpt lat="45.72074" lon="4.90159">
        <ele>159</ele>
        <time>2017-02-28T17:25:51Z</time>
      </trkpt>
      <trkpt lat="45.72074" lon="4.90151">
        <ele>160</ele>
        <time>2017-02-28T17:25:53Z</time>
      </trkpt>
      <trkpt lat="45.72076" lon="4.9012">
        <ele>158</ele>
        <time>2017-02-28T17:26:00Z</time>
      </trkpt>
      <trkpt lat="45.72055" lon="4.90095">
        <ele>160</ele>
        <time>2017-02-28T17:26:06Z</time>
      </trkpt>
      <trkpt lat="45.72049" lon="4.90047">
        <ele>160</ele>
        <time>2017-02-28T17:26:15Z</time>
      </trkpt>
      <trkpt lat="45.72044" lon="4.90036">
        <ele>162</ele>
        <time>2017-02-28T17:26:17Z</time>
      </trkpt>
      <trkpt lat="45.72045" lon="4.90017">
        <ele>155</ele>
        <time>2017-02-28T17:26:23Z</time>
      </trkpt>
      <trkpt lat="45.72044" lon="4.89994">
        <ele>150</ele>
        <time>2017-02-28T17:26:29Z</time>
      </trkpt>
      <trkpt lat="45.72049" lon="4.89965">
        <ele>155</ele>
        <time>2017-02-28T17:26:35Z</time>
      </trkpt>
      <trkpt lat="45.72039" lon="4.89931">
        <ele>154</ele>
        <time>2017-02-28T17:26:41Z</time>
      </trkpt>
      <trkpt lat="45.72028" lon="4.89894">
        <ele>160</ele>
        <time>2017-02-28T17:26:51Z</time>
      </trkpt>
      <trkpt lat="45.72024" lon="4.89887">
        <ele>159</ele>
        <time>2017-02-28T17:26:53Z</time>
      </trkpt>
      <trkpt lat="45.72" lon="4.89858">
        <ele>162</ele>
        <time>2017-02-28T17:26:59Z</time>
      </trkpt>
      <trkpt lat="45.71984" lon="4.89854">
        <ele>163</ele>
        <time>2017-02-28T17:27:05Z</time>
      </trkpt>
      <trkpt lat="45.71941" lon="4.89847">
        <ele>171</ele>
        <time>2017-02-28T17:27:16Z</time>
      </trkpt>
      <trkpt lat="45.71921" lon="4.89848">
        <ele>174</ele>
        <time>2017-02-28T17:27:22Z</time>
      </trkpt>
      <trkpt lat="45.71913" lon="4.8985">
        <ele>172</ele>
        <time>2017-02-28T17:27:24Z</time>
      </trkpt>
      <trkpt lat="45.71901" lon="4.89857">
        <ele>173</ele>
        <time>2017-02-28T17:27:29Z</time>
      </trkpt>
      <trkpt lat="45.71867" lon="4.89871">
        <ele>173</ele>
        <time>2017-02-28T17:27:40Z</time>
      </trkpt>
      <trkpt lat="45.71852" lon="4.89876">
        <ele>177</ele>
        <time>2017-02-28T17:27:44Z</time>
      </trkpt>
      <trkpt lat="45.71843" lon="4.89879">
        <ele>178</ele>
        <time>2017-02-28T17:27:47Z</time>
      </trkpt>
      <trkpt lat="45.71821" lon="4.89895">
        <ele>179</ele>
        <time>2017-02-28T17:27:54Z</time>
      </trkpt>
      <trkpt lat="45.71823" lon="4.89915">
        <ele>176</ele>
        <time>2017-02-28T17:28:04Z</time>
      </trkpt>
      <trkpt lat="45.71827" lon="4.89914">
        <ele>176</ele>
        <time>2017-02-28T17:28:05Z</time>
      </trkpt>
      <trkpt lat="45.71861" lon="4.89905">
        <ele>166</ele>
        <time>2017-02-28T17:28:15Z</time>
      </trkpt>
      <trkpt lat="45.71881" lon="4.8991">
        <ele>172</ele>
        <time>2017-02-28T17:28:21Z</time>
      </trkpt>
      <trkpt lat="45.71885" lon="4.89913">
        <ele>173</ele>
        <time>2017-02-28T17:28:23Z</time>
      </trkpt>
      <trkpt lat="45.71904" lon="4.89917">
        <ele>175</ele>
        <time>2017-02-28T17:28:29Z</time>
      </trkpt>
      <trkpt lat="45.71925" lon="4.89925">
        <ele>168</ele>
        <time>2017-02-28T17:28:35Z</time>
      </trkpt>
      <trkpt lat="45.71946" lon="4.89948">
        <ele>168</ele>
        <time>2017-02-28T17:28:41Z</time>
      </trkpt>
      <trkpt lat="45.71959" lon="4.9">
        <ele>175</ele>
        <time>2017-02-28T17:28:52Z</time>
      </trkpt>
      <trkpt lat="45.7196" lon="4.90005">
        <ele>175</ele>
        <time>2017-02-28T17:28:53Z</time>
      </trkpt>
      <trkpt lat="45.71965" lon="4.90035">
        <ele>176</ele>
        <time>2017-02-28T17:28:59Z</time>
      </trkpt>
      <trkpt lat="45.71968" lon="4.90062">
        <ele>175</ele>
        <time>2017-02-28T17:29:05Z</time>
      </trkpt>
      <trkpt lat="45.71967" lon="4.90092">
        <ele>181</ele>
        <time>2017-02-28T17:29:11Z</time>
      </trkpt>
      <trkpt lat="45.71967" lon="4.90125">
        <ele>182</ele>
        <time>2017-02-28T17:29:17Z</time>
      </trkpt>
      <trkpt lat="45.71972" lon="4.9016">
        <ele>182</ele>
        <time>2017-02-28T17:29:24Z</time>
      </trkpt>
      <trkpt lat="45.71972" lon="4.90193">
        <ele>187</ele>
        <time>2017-02-28T17:29:30Z</time>
      </trkpt>
      <trkpt lat="45.7198" lon="4.90222">
        <ele>186</ele>
        <time>2017-02-28T17:29:36Z</time>
      </trkpt>
      <trkpt lat="45.71984" lon="4.90249">
        <ele>186</ele>
        <time>2017-02-28T17:29:41Z</time>
      </trkpt>
      <trkpt lat="45.71974" lon="4.90274">
        <ele>185</ele>
        <time>2017-02-28T17:29:47Z</time>
      </trkpt>
      <trkpt lat="45.71969" lon="4.90281">
        <ele>185</ele>
        <time>2017-02-28T17:29:53Z</time>
      </trkpt>
      <trkpt lat="45.71946" lon="4.90306">
        <ele>186</ele>
        <time>2017-02-28T17:29:59Z</time>
      </trkpt>
      <trkpt lat="45.71926" lon="4.9033">
        <ele>186</ele>
        <time>2017-02-28T17:30:06Z</time>
      </trkpt>
      <trkpt lat="45.71841" lon="4.90436">
        <ele>187</ele>
        <time>2017-02-28T17:30:50Z</time>
      </trkpt>
      <trkpt lat="45.71848" lon="4.90475">
        <ele>183</ele>
        <time>2017-02-28T17:30:57Z</time>
      </trkpt>
      <trkpt lat="45.7186" lon="4.90499">
        <ele>181</ele>
        <time>2017-02-28T17:31:01Z</time>
      </trkpt>
      <trkpt lat="45.71865" lon="4.90514">
        <ele>183</ele>
        <time>2017-02-28T17:31:04Z</time>
      </trkpt>
      <trkpt lat="45.71883" lon="4.90543">
        <ele>190</ele>
        <time>2017-02-28T17:31:12Z</time>
      </trkpt>
      <trkpt lat="45.71882" lon="4.90559">
        <ele>192</ele>
        <time>2017-02-28T17:31:16Z</time>
      </trkpt>
      <trkpt lat="45.71901" lon="4.9061">
        <ele>190</ele>
        <time>2017-02-28T17:31:27Z</time>
      </trkpt>
      <trkpt lat="45.71901" lon="4.90614">
        <ele>185</ele>
        <time>2017-02-28T17:31:28Z</time>
      </trkpt>
      <trkpt lat="45.71912" lon="4.90635">
        <ele>182</ele>
        <time>2017-02-28T17:31:34Z</time>
      </trkpt>
      <trkpt lat="45.71926" lon="4.90667">
        <ele>183</ele>
        <time>2017-02-28T17:31:40Z</time>
      </trkpt>
      <trkpt lat="45.71925" lon="4.90692">
        <ele>184</ele>
        <time>2017-02-28T17:31:47Z</time>
      </trkpt>
      <trkpt lat="45.71933" lon="4.90712">
        <ele>181</ele>
        <time>2017-02-28T17:31:52Z</time>
      </trkpt>
      <trkpt lat="45.7195" lon="4.90757">
        <ele>182</ele>
        <time>2017-02-28T17:32:03Z</time>
      </trkpt>
      <trkpt lat="45.71948" lon="4.90782">
        <ele>180</ele>
        <time>2017-02-28T17:32:08Z</time>
      </trkpt>
      <trkpt lat="45.71943" lon="4.90793">
        <ele>181</ele>
        <time>2017-02-28T17:32:10Z</time>
      </trkpt>
      <trkpt lat="45.71941" lon="4.90818">
        <ele>181</ele>
        <time>2017-02-28T17:32:16Z</time>
      </trkpt>
      <trkpt lat="45.71923" lon="4.90835">
        <ele>183</ele>
        <time>2017-02-28T17:32:22Z</time>
      </trkpt>
      <trkpt lat="45.71901" lon="4.90836">
        <ele>185</ele>
        <time>2017-02-28T17:32:29Z</time>
      </trkpt>
      <trkpt lat="45.71888" lon="4.90817">
        <ele>186</ele>
        <time>2017-02-28T17:32:35Z</time>
      </trkpt>
      <trkpt lat="45.71875" lon="4.908">
        <ele>186</ele>
        <time>2017-02-28T17:32:40Z</time>
      </trkpt>
      <trkpt lat="45.71873" lon="4.9077">
        <ele>187</ele>
        <time>2017-02-28T17:32:46Z</time>
      </trkpt>
      <trkpt lat="45.71839" lon="4.90722">
        <ele>189</ele>
        <time>2017-02-28T17:32:55Z</time>
      </trkpt>
      <trkpt lat="45.71833" lon="4.90711">
        <ele>189</ele>
        <time>2017-02-28T17:32:58Z</time>
      </trkpt>
      <trkpt lat="45.71819" lon="4.90658">
        <ele>182</ele>
        <time>2017-02-28T17:33:09Z</time>
      </trkpt>
      <trkpt lat="45.71818" lon="4.90649">
        <ele>182</ele>
        <time>2017-02-28T17:33:10Z</time>
      </trkpt>
      <trkpt lat="45.71799" lon="4.90625">
        <ele>187</ele>
        <time>2017-02-28T17:33:16Z</time>
      </trkpt>
      <trkpt lat="45.71793" lon="4.90622">
        <ele>184</ele>
        <time>2017-02-28T17:33:22Z</time>
      </trkpt>
      <trkpt lat="45.71781" lon="4.90588">
        <ele>183</ele>
        <time>2017-02-28T17:33:29Z</time>
      </trkpt>
      <trkpt lat="45.71774" lon="4.9055">
        <ele>178</ele>
        <time>2017-02-28T17:33:36Z</time>
      </trkpt>
      <trkpt lat="45.71748" lon="4.90515">
        <ele>173</ele>
        <time>2017-02-28T17:33:45Z</time>
      </trkpt>
      <trkpt lat="45.71748" lon="4.9051">
        <ele>172</ele>
        <time>2017-02-28T17:33:46Z</time>
      </trkpt>
      <trkpt lat="45.71731" lon="4.90502">
        <ele>174</ele>
        <time>2017-02-28T17:33:52Z</time>
      </trkpt>
      <trkpt lat="45.71712" lon="4.9053">
        <ele>177</ele>
        <time>2017-02-28T17:33:59Z</time>
      </trkpt>
      <trkpt lat="45.71665" lon="4.90496">
        <ele>195</ele>
        <time>2017-02-28T17:34:14Z</time>
      </trkpt>
      <trkpt lat="45.71661" lon="4.90487">
        <ele>193</ele>
        <time>2017-02-28T17:34:16Z</time>
      </trkpt>
      <trkpt lat="45.7162" lon="4.90469">
        <ele>188</ele>
        <time>2017-02-28T17:34:27Z</time>
      </trkpt>
      <trkpt lat="45.71614" lon="4.9047">
        <ele>189</ele>
        <time>2017-02-28T17:34:28Z</time>
      </trkpt>
      <trkpt lat="45.71599" lon="4.90448">
        <ele>186</ele>
        <time>2017-02-28T17:34:34Z</time>
      </trkpt>
      <trkpt lat="45.71592" lon="4.90422">
        <ele>189</ele>
        <time>2017-02-28T17:34:40Z</time>
      </trkpt>
      <trkpt lat="45.71578" lon="4.90401">
        <ele>189</ele>
        <time>2017-02-28T17:34:46Z</time>
      </trkpt>
      <trkpt lat="45.71553" lon="4.90376">
        <ele>188</ele>
        <time>2017-02-28T17:34:55Z</time>
      </trkpt>
      <trkpt lat="45.71532" lon="4.90364">
        <ele>189</ele>
        <time>2017-02-28T17:35:02Z</time>
      </trkpt>
      <trkpt lat="45.71525" lon="4.90364">
        <ele>191</ele>
        <time>2017-02-28T17:35:04Z</time>
      </trkpt>
      <trkpt lat="45.71481" lon="4.90364">
        <ele>196</ele>
        <time>2017-02-28T17:35:19Z</time>
      </trkpt>
      <trkpt lat="45.71473" lon="4.90359">
        <ele>199</ele>
        <time>2017-02-28T17:35:22Z</time>
      </trkpt>
      <trkpt lat="45.71457" lon="4.90334">
        <ele>190</ele>
        <time>2017-02-28T17:35:30Z</time>
      </trkpt>
      <trkpt lat="45.71459" lon="4.90313">
        <ele>175</ele>
        <time>2017-02-28T17:35:34Z</time>
      </trkpt>
      <trkpt lat="45.71463" lon="4.90276">
        <ele>158</ele>
        <time>2017-02-28T17:35:42Z</time>
      </trkpt>
      <trkpt lat="45.71466" lon="4.90258">
        <ele>153</ele>
        <time>2017-02-28T17:35:46Z</time>
      </trkpt>
      <trkpt lat="45.71487" lon="4.90156">
        <ele>144</ele>
        <time>2017-02-28T17:36:03Z</time>
      </trkpt>
      <trkpt lat="45.71476" lon="4.9014">
        <ele>141</ele>
        <time>2017-02-28T17:36:06Z</time>
      </trkpt>
      <trkpt lat="45.71476" lon="4.90108">
        <ele>143</ele>
        <time>2017-02-28T17:36:14Z</time>
      </trkpt>
      <trkpt lat="45.71476" lon="4.90098">
        <ele>143</ele>
        <time>2017-02-28T17:36:16Z</time>
      </trkpt>
      <trkpt lat="45.71478" lon="4.90069">
        <ele>143</ele>
        <time>2017-02-28T17:36:22Z</time>
      </trkpt>
      <trkpt lat="45.71487" lon="4.90057">
        <ele>142</ele>
        <time>2017-02-28T17:36:28Z</time>
      </trkpt>
      <trkpt lat="45.71486" lon="4.90017">
        <ele>144</ele>
        <time>2017-02-28T17:36:35Z</time>
      </trkpt>
      <trkpt lat="45.71491" lon="4.89976">
        <ele>144</ele>
        <time>2017-02-28T17:36:43Z</time>
      </trkpt>
      <trkpt lat="45.71498" lon="4.89945">
        <ele>146</ele>
        <time>2017-02-28T17:36:51Z</time>
      </trkpt>
      <trkpt lat="45.71501" lon="4.89909">
        <ele>144</ele>
        <time>2017-02-28T17:36:57Z</time>
      </trkpt>
      <trkpt lat="45.71501" lon="4.89907">
        <ele>143</ele>
        <time>2017-02-28T17:36:58Z</time>
      </trkpt>
      <trkpt lat="45.71499" lon="4.89855">
        <ele>143</ele>
        <time>2017-02-28T17:37:06Z</time>
      </trkpt>
      <trkpt lat="45.71502" lon="4.89841">
        <ele>142</ele>
        <time>2017-02-28T17:37:10Z</time>
      </trkpt>
      <trkpt lat="45.7151" lon="4.89819">
        <ele>137</ele>
        <time>2017-02-28T17:37:16Z</time>
      </trkpt>
      <trkpt lat="45.71532" lon="4.8977">
        <ele>135</ele>
        <time>2017-02-28T17:37:27Z</time>
      </trkpt>
      <trkpt lat="45.71534" lon="4.89771">
        <ele>135</ele>
        <time>2017-02-28T17:37:28Z</time>
      </trkpt>
      <trkpt lat="45.71557" lon="4.89757">
        <ele>139</ele>
        <time>2017-02-28T17:37:34Z</time>
      </trkpt>
      <trkpt lat="45.71574" lon="4.89724">
        <ele>139</ele>
        <time>2017-02-28T17:37:44Z</time>
      </trkpt>
      <trkpt lat="45.71577" lon="4.89703">
        <ele>142</ele>
        <time>2017-02-28T17:37:49Z</time>
      </trkpt>
      <trkpt lat="45.71592" lon="4.8967">
        <ele>144</ele>
        <time>2017-02-28T17:37:56Z</time>
      </trkpt>
      <trkpt lat="45.71606" lon="4.89656">
        <ele>145</ele>
        <time>2017-02-28T17:38:01Z</time>
      </trkpt>
      <trkpt lat="45.71609" lon="4.89645">
        <ele>142</ele>
        <time>2017-02-28T17:38:04Z</time>
      </trkpt>
      <trkpt lat="45.71614" lon="4.89623">
        <ele>139</ele>
        <time>2017-02-28T17:38:10Z</time>
      </trkpt>
      <trkpt lat="45.7163" lon="4.89585">
        <ele>140</ele>
        <time>2017-02-28T17:38:19Z</time>
      </trkpt>
      <trkpt lat="45.71636" lon="4.89575">
        <ele>140</ele>
        <time>2017-02-28T17:38:22Z</time>
      </trkpt>
      <trkpt lat="45.71645" lon="4.89543">
        <ele>142</ele>
        <time>2017-02-28T17:38:28Z</time>
      </trkpt>
      <trkpt lat="45.71652" lon="4.89512">
        <ele>143</ele>
        <time>2017-02-28T17:38:34Z</time>
      </trkpt>
      <trkpt lat="45.71666" lon="4.8949">
        <ele>148</ele>
        <time>2017-02-28T17:38:40Z</time>
      </trkpt>
      <trkpt lat="45.71687" lon="4.89455">
        <ele>146</ele>
        <time>2017-02-28T17:38:49Z</time>
      </trkpt>
      <trkpt lat="45.71692" lon="4.89447">
        <ele>147</ele>
        <time>2017-02-28T17:38:52Z</time>
      </trkpt>
      <trkpt lat="45.7171" lon="4.89397">
        <ele>140</ele>
        <time>2017-02-28T17:39:03Z</time>
      </trkpt>
      <trkpt lat="45.71712" lon="4.89393">
        <ele>139</ele>
        <time>2017-02-28T17:39:04Z</time>
      </trkpt>
      <trkpt lat="45.71719" lon="4.89365">
        <ele>140</ele>
        <time>2017-02-28T17:39:10Z</time>
      </trkpt>
      <trkpt lat="45.71735" lon="4.89346">
        <ele>146</ele>
        <time>2017-02-28T17:39:16Z</time>
      </trkpt>
      <trkpt lat="45.71768" lon="4.8934">
        <ele>149</ele>
        <time>2017-02-28T17:39:24Z</time>
      </trkpt>
      <trkpt lat="45.71789" lon="4.89332">
        <ele>154</ele>
        <time>2017-02-28T17:39:29Z</time>
      </trkpt>
      <trkpt lat="45.71807" lon="4.89324">
        <ele>152</ele>
        <time>2017-02-28T17:39:35Z</time>
      </trkpt>
      <trkpt lat="45.71822" lon="4.89321">
        <ele>150</ele>
        <time>2017-02-28T17:39:40Z</time>
      </trkpt>
      <trkpt lat="45.7184" lon="4.89331">
        <ele>152</ele>
        <time>2017-02-28T17:39:46Z</time>
      </trkpt>
      <trkpt lat="45.71856" lon="4.89344">
        <ele>149</ele>
        <time>2017-02-28T17:39:52Z</time>
      </trkpt>
      <trkpt lat="45.71873" lon="4.89361">
        <ele>152</ele>
        <time>2017-02-28T17:39:58Z</time>
      </trkpt>
      <trkpt lat="45.71889" lon="4.89379">
        <ele>154</ele>
        <time>2017-02-28T17:40:04Z</time>
      </trkpt>
      <trkpt lat="45.7191" lon="4.89401">
        <ele>156</ele>
        <time>2017-02-28T17:40:11Z</time>
      </trkpt>
      <trkpt lat="45.71924" lon="4.89422">
        <ele>154</ele>
        <time>2017-02-28T17:40:16Z</time>
      </trkpt>
      <trkpt lat="45.71928" lon="4.89451">
        <ele>153</ele>
        <time>2017-02-28T17:40:22Z</time>
      </trkpt>
      <trkpt lat="45.71921" lon="4.89483">
        <ele>156</ele>
        <time>2017-02-28T17:40:29Z</time>
      </trkpt>
      <trkpt lat="45.71918" lon="4.89501">
        <ele>156</ele>
        <time>2017-02-28T17:40:34Z</time>
      </trkpt>
      <trkpt lat="45.71906" lon="4.89524">
        <ele>157</ele>
        <time>2017-02-28T17:40:40Z</time>
      </trkpt>
      <trkpt lat="45.71886" lon="4.89542">
        <ele>158</ele>
        <time>2017-02-28T17:40:47Z</time>
      </trkpt>
      <trkpt lat="45.71866" lon="4.89551">
        <ele>157</ele>
        <time>2017-02-28T17:40:54Z</time>
      </trkpt>
      <trkpt lat="45.71848" lon="4.8956">
        <ele>162</ele>
        <time>2017-02-28T17:41:00Z</time>
      </trkpt>
      <trkpt lat="45.71832" lon="4.89558">
        <ele>161</ele>
        <time>2017-02-28T17:41:04Z</time>
      </trkpt>
      <trkpt lat="45.71788" lon="4.89571">
        <ele>165</ele>
        <time>2017-02-28T17:41:15Z</time>
      </trkpt>
      <trkpt lat="45.7177" lon="4.89585">
        <ele>167</ele>
        <time>2017-02-28T17:41:21Z</time>
      </trkpt>
      <trkpt lat="45.71765" lon="4.89586">
        <ele>168</ele>
        <time>2017-02-28T17:41:22Z</time>
      </trkpt>
      <trkpt lat="45.71736" lon="4.89602">
        <ele>175</ele>
        <time>2017-02-28T17:41:33Z</time>
      </trkpt>
      <trkpt lat="45.71732" lon="4.89606">
        <ele>174</ele>
        <time>2017-02-28T17:41:34Z</time>
      </trkpt>
      <trkpt lat="45.71724" lon="4.89603">
        <ele>172</ele>
        <time>2017-02-28T17:41:40Z</time>
      </trkpt>
      <trkpt lat="45.71672" lon="4.89634">
        <ele>173</ele>
        <time>2017-02-28T17:41:51Z</time>
      </trkpt>
      <trkpt lat="45.7166" lon="4.89633">
        <ele>173</ele>
        <time>2017-02-28T17:41:54Z</time>
      </trkpt>
      <trkpt lat="45.71642" lon="4.89643">
        <ele>178</ele>
        <time>2017-02-28T17:42:00Z</time>
      </trkpt>
      <trkpt lat="45.71624" lon="4.8966">
        <ele>178</ele>
        <time>2017-02-28T17:42:09Z</time>
      </trkpt>
      <trkpt lat="45.71625" lon="4.89663">
        <ele>179</ele>
        <time>2017-02-28T17:42:10Z</time>
      </trkpt>
      <trkpt lat="45.71647" lon="4.89663">
        <ele>180</ele>
        <time>2017-02-28T17:42:16Z</time>
      </trkpt>
      <trkpt lat="45.71668" lon="4.89655">
        <ele>184</ele>
        <time>2017-02-28T17:42:22Z</time>
      </trkpt>
      <trkpt lat="45.71682" lon="4.89664">
        <ele>180</ele>
        <time>2017-02-28T17:42:28Z</time>
      </trkpt>
      <trkpt lat="45.71703" lon="4.89654">
        <ele>182</ele>
        <time>2017-02-28T17:42:34Z</time>
      </trkpt>
      <trkpt lat="45.71733" lon="4.89636">
        <ele>177</ele>
        <time>2017-02-28T17:42:42Z</time>
      </trkpt>
      <trkpt lat="45.71766" lon="4.89633">
        <ele>175</ele>
        <time>2017-02-28T17:42:51Z</time>
      </trkpt>
      <trkpt lat="45.71771" lon="4.89631">
        <ele>177</ele>
        <time>2017-02-28T17:42:52Z</time>
      </trkpt>
      <trkpt lat="45.71812" lon="4.89613">
        <ele>175</ele>
        <time>2017-02-28T17:43:03Z</time>
      </trkpt>
      <trkpt lat="45.71822" lon="4.89604">
        <ele>175</ele>
        <time>2017-02-28T17:43:06Z</time>
      </trkpt>
      <trkpt lat="45.71835" lon="4.89596">
        <ele>175</ele>
        <time>2017-02-28T17:43:10Z</time>
      </trkpt>
      <trkpt lat="45.7185" lon="4.89596">
        <ele>171</ele>
        <time>2017-02-28T17:43:16Z</time>
      </trkpt>
      <trkpt lat="45.71869" lon="4.89585">
        <ele>171</ele>
        <time>2017-02-28T17:43:22Z</time>
      </trkpt>
      <trkpt lat="45.7189" lon="4.89575">
        <ele>167</ele>
        <time>2017-02-28T17:43:28Z</time>
      </trkpt>
      <trkpt lat="45.71917" lon="4.89566">
        <ele>167</ele>
        <time>2017-02-28T17:43:35Z</time>
      </trkpt>
      <trkpt lat="45.71933" lon="4.89562">
        <ele>169</ele>
        <time>2017-02-28T17:43:40Z</time>
      </trkpt>
      <trkpt lat="45.71971" lon="4.89544">
        <ele>161</ele>
        <time>2017-02-28T17:43:50Z</time>
      </trkpt>
      <trkpt lat="45.71978" lon="4.89542">
        <ele>163</ele>
        <time>2017-02-28T17:43:52Z</time>
      </trkpt>
      <trkpt lat="45.71996" lon="4.89536">
        <ele>163</ele>
        <time>2017-02-28T17:43:58Z</time>
      </trkpt>
      <trkpt lat="45.72018" lon="4.89522">
        <ele>160</ele>
        <time>2017-02-28T17:44:04Z</time>
      </trkpt>
      <trkpt lat="45.72041" lon="4.8951">
        <ele>160</ele>
        <time>2017-02-28T17:44:10Z</time>
      </trkpt>
      <trkpt lat="45.72058" lon="4.89511">
        <ele>158</ele>
        <time>2017-02-28T17:44:16Z</time>
      </trkpt>
      <trkpt lat="45.7208" lon="4.89505">
        <ele>159</ele>
        <time>2017-02-28T17:44:22Z</time>
      </trkpt>
      <trkpt lat="45.72098" lon="4.89494">
        <ele>158</ele>
        <time>2017-02-28T17:44:28Z</time>
      </trkpt>
      <trkpt lat="45.72129" lon="4.89487">
        <ele>160</ele>
        <time>2017-02-28T17:44:34Z</time>
      </trkpt>
      <trkpt lat="45.7215" lon="4.89485">
        <ele>162</ele>
        <time>2017-02-28T17:44:40Z</time>
      </trkpt>
      <trkpt lat="45.72178" lon="4.89497">
        <ele>160</ele>
        <time>2017-02-28T17:44:48Z</time>
      </trkpt>
      <trkpt lat="45.72193" lon="4.89502">
        <ele>161</ele>
        <time>2017-02-28T17:44:52Z</time>
      </trkpt>
      <trkpt lat="45.72206" lon="4.89522">
        <ele>159</ele>
        <time>2017-02-28T17:44:58Z</time>
      </trkpt>
      <trkpt lat="45.7222" lon="4.89533">
        <ele>160</ele>
        <time>2017-02-28T17:45:04Z</time>
      </trkpt>
      <trkpt lat="45.72242" lon="4.89541">
        <ele>157</ele>
        <time>2017-02-28T17:45:10Z</time>
      </trkpt>
      <trkpt lat="45.72267" lon="4.89569">
        <ele>161</ele>
        <time>2017-02-28T17:45:20Z</time>
      </trkpt>
      <trkpt lat="45.72274" lon="4.89576">
        <ele>160</ele>
        <time>2017-02-28T17:45:23Z</time>
      </trkpt>
      <trkpt lat="45.72269" lon="4.89593">
        <ele>163</ele>
        <time>2017-02-28T17:45:28Z</time>
      </trkpt>
      <trkpt lat="45.72285" lon="4.89638">
        <ele>163</ele>
        <time>2017-02-28T17:45:36Z</time>
      </trkpt>
      <trkpt lat="45.72283" lon="4.89673">
        <ele>164</ele>
        <time>2017-02-28T17:45:44Z</time>
      </trkpt>
      <trkpt lat="45.72291" lon="4.89689">
        <ele>167</ele>
        <time>2017-02-28T17:45:47Z</time>
      </trkpt>
      <trkpt lat="45.72297" lon="4.89707">
        <ele>167</ele>
        <time>2017-02-28T17:45:52Z</time>
      </trkpt>
      <trkpt lat="45.72279" lon="4.8975">
        <ele>166</ele>
        <time>2017-02-28T17:46:05Z</time>
      </trkpt>
    </trkseg>
  </trk>
  <trk>
    <name><![CDATA[Sequence 2]]></name>
    <trkseg>
      <trkpt lat="45.72219" lon="4.9007">
        <ele>170</ele>
        <time>2017-02-28T17:47:38Z</time>
      </trkpt>
      <trkpt lat="45.72223" lon="4.90045">
        <ele>158</ele>
        <time>2017-02-28T17:47:45Z</time>
      </trkpt>
      <trkpt lat="45.72223" lon="4.90037">
        <ele>161</ele>
        <time>2017-02-28T17:47:46Z</time>
      </trkpt>
      <trkpt lat="45.72211" lon="4.89994">
        <ele>166</ele>
        <time>2017-02-28T17:47:52Z</time>
      </trkpt>
      <trkpt lat="45.72203" lon="4.89967">
        <ele>166</ele>
        <time>2017-02-28T17:47:58Z</time>
      </trkpt>
      <trkpt lat="45.72193" lon="4.89941">
        <ele>168</ele>
        <time>2017-02-28T17:48:04Z</time>
      </trkpt>
      <trkpt lat="45.72188" lon="4.89914">
        <ele>167</ele>
        <time>2017-02-28T17:48:11Z</time>
      </trkpt>
      <trkpt lat="45.72207" lon="4.89783">
        <ele>163</ele>
        <time>2017-02-28T17:48:33Z</time>
      </trkpt>
      <trkpt lat="45.72208" lon="4.89779">
        <ele>163</ele>
        <time>2017-02-28T17:48:34Z</time>
      </trkpt>
      <trkpt lat="45.72204" lon="4.89732">
        <ele>164</ele>
        <time>2017-02-28T17:48:45Z</time>
      </trkpt>
      <trkpt lat="45.72208" lon="4.89714">
        <ele>164</ele>
        <time>2017-02-28T17:48:51Z</time>
      </trkpt>
      <trkpt lat="45.72183" lon="4.89756">
        <ele>168</ele>
        <time>2017-02-28T17:49:02Z</time>
      </trkpt>
      <trkpt lat="45.7218" lon="4.89774">
        <ele>167</ele>
        <time>2017-02-28T17:49:05Z</time>
      </trkpt>
      <trkpt lat="45.72192" lon="4.89815">
        <ele>155</ele>
        <time>2017-02-28T17:49:14Z</time>
      </trkpt>
      <trkpt lat="45.7218" lon="4.89874">
        <ele>155</ele>
        <time>2017-02-28T17:49:22Z</time>
      </trkpt>
      <trkpt lat="45.72171" lon="4.89907">
        <ele>154</ele>
        <time>2017-02-28T17:49:31Z</time>
      </trkpt>
      <trkpt lat="45.72186" lon="4.89941">
        <ele>160</ele>
        <time>2017-02-28T17:49:39Z</time>
      </trkpt>
      <trkpt lat="45.72188" lon="4.89953">
        <ele>160</ele>
        <time>2017-02-28T17:49:42Z</time>
      </trkpt>
      <trkpt lat="45.7221" lon="4.90129">
        <ele>155</ele>
        <time>2017-02-28T17:50:17Z</time>
      </trkpt>
      <trkpt lat="45.72225" lon="4.90141">
        <ele>158</ele>
        <time>2017-02-28T17:50:21Z</time>
      </trkpt>
      <trkpt lat="45.72228" lon="4.90154">
        <ele>154</ele>
        <time>2017-02-28T17:50:24Z</time>
      </trkpt>
      <trkpt lat="45.7223" lon="4.90172">
        <ele>153</ele>
        <time>2017-02-28T17:50:30Z</time>
      </trkpt>
      <trkpt lat="45.72193" lon="4.90399">
        <ele>161</ele>
        <time>2017-02-28T17:51:19Z</time>
      </trkpt>
      <trkpt lat="45.72198" lon="4.90421">
        <ele>167</ele>
        <time>2017-02-28T17:51:22Z</time>
      </trkpt>
      <trkpt lat="45.72202" lon="4.90438">
        <ele>167</ele>
        <time>2017-02-28T17:51:26Z</time>
      </trkpt>
      <trkpt lat="45.72312" lon="4.9069">
        <ele>158</ele>
        <time>2017-02-28T17:52:31Z</time>
      </trkpt>
      <trkpt lat="45.72347" lon="4.90722">
        <ele>153</ele>
        <time>2017-02-28T17:52:38Z</time>
      </trkpt>
      <trkpt lat="45.72351" lon="4.9075">
        <ele>158</ele>
        <time>2017-02-28T17:52:44Z</time>
      </trkpt>
      <trkpt lat="45.72372" lon="4.90866">
        <ele>157</ele>
        <time>2017-02-28T17:53:07Z</time>
      </trkpt>
      <trkpt lat="45.72366" lon="4.90874">
        <ele>159</ele>
        <time>2017-02-28T17:53:10Z</time>
      </trkpt>
      <trkpt lat="45.72381" lon="4.9089">
        <ele>161</ele>
        <time>2017-02-28T17:53:14Z</time>
      </trkpt>
      <trkpt lat="45.72315" lon="4.90782">
        <ele>163</ele>
        <time>2017-02-28T17:53:55Z</time>
      </trkpt>
      <trkpt lat="45.72296" lon="4.90744">
        <ele>188</ele>
        <time>2017-02-28T17:54:06Z</time>
      </trkpt>
      <trkpt lat="45.72292" lon="4.90715">
        <ele>190</ele>
        <time>2017-02-28T17:54:13Z</time>
      </trkpt>
      <trkpt lat="45.7229" lon="4.90695">
        <ele>186</ele>
        <time>2017-02-28T17:54:18Z</time>
      </trkpt>
      <trkpt lat="45.72297" lon="4.90688">
        <ele>185</ele>
        <time>2017-02-28T17:54:21Z</time>
      </trkpt>
      <trkpt lat="45.72273" lon="4.90641">
        <ele>183</ele>
        <time>2017-02-28T17:54:30Z</time>
      </trkpt>
      <trkpt lat="45.72262" lon="4.90616">
        <ele>182</ele>
        <time>2017-02-28T17:54:35Z</time>
      </trkpt>
      <trkpt lat="45.72248" lon="4.90597">
        <ele>179</ele>
        <time>2017-02-28T17:54:39Z</time>
      </trkpt>
      <trkpt lat="45.72234" lon="4.90574">
        <ele>174</ele>
        <time>2017-02-28T17:54:44Z</time>
      </trkpt>
      <trkpt lat="45.72228" lon="4.90545">
        <ele>176</ele>
        <time>2017-02-28T17:54:50Z</time>
      </trkpt>
      <trkpt lat="45.72226" lon="4.90512">
        <ele>174</ele>
        <time>2017-02-28T17:54:56Z</time>
      </trkpt>
      <trkpt lat="45.72215" lon="4.90479">
        <ele>167</ele>
        <time>2017-02-28T17:55:04Z</time>
      </trkpt>
      <trkpt lat="45.72211" lon="4.90465">
        <ele>167</ele>
        <time>2017-02-28T17:55:08Z</time>
      </trkpt>
      <trkpt lat="45.722" lon="4.90431">
        <ele>167</ele>
        <time>2017-02-28T17:55:14Z</time>
      </trkpt>
      <trkpt lat="45.72186" lon="4.90385">
        <ele>166</ele>
        <time>2017-02-28T17:55:24Z</time>
      </trkpt>
      <trkpt lat="45.72164" lon="4.90355">
        <ele>168</ele>
        <time>2017-02-28T17:55:30Z</time>
      </trkpt>
      <trkpt lat="45.72157" lon="4.90334">
        <ele>166</ele>
        <time>2017-02-28T17:55:36Z</time>
      </trkpt>
      <trkpt lat="45.72154" lon="4.90328">
        <ele>167</ele>
        <time>2017-02-28T17:55:38Z</time>
      </trkpt>
      <trkpt lat="45.72151" lon="4.90278">
        <ele>164</ele>
        <time>2017-02-28T17:55:48Z</time>
      </trkpt>
      <trkpt lat="45.72147" lon="4.90273">
        <ele>165</ele>
        <time>2017-02-28T17:55:50Z</time>
      </trkpt>
      <trkpt lat="45.72123" lon="4.90222">
        <ele>165</ele>
        <time>2017-02-28T17:56:01Z</time>
      </trkpt>
      <trkpt lat="45.72119" lon="4.90212">
        <ele>168</ele>
        <time>2017-02-28T17:56:06Z</time>
      </trkpt>
      <trkpt lat="45.72112" lon="4.90201">
        <ele>168</ele>
        <time>2017-02-28T17:56:08Z</time>
      </trkpt>
      <trkpt lat="45.72071" lon="4.90184">
        <ele>161</ele>
        <time>2017-02-28T17:56:16Z</time>
      </trkpt>
      <trkpt lat="45.72071" lon="4.90148">
        <ele>162</ele>
        <time>2017-02-28T17:56:23Z</time>
      </trkpt>
      <trkpt lat="45.72075" lon="4.90131">
        <ele>164</ele>
        <time>2017-02-28T17:56:26Z</time>
      </trkpt>
      <trkpt lat="45.72072" lon="4.90088">
        <ele>164</ele>
        <time>2017-02-28T17:56:36Z</time>
      </trkpt>
      <trkpt lat="45.72068" lon="4.90082">
        <ele>165</ele>
        <time>2017-02-28T17:56:38Z</time>
      </trkpt>
      <trkpt lat="45.72056" lon="4.90052">
        <ele>163</ele>
        <time>2017-02-28T17:56:44Z</time>
      </trkpt>
      <trkpt lat="45.7205" lon="4.90022">
        <ele>165</ele>
        <time>2017-02-28T17:56:50Z</time>
      </trkpt>
      <trkpt lat="45.72043" lon="4.89996">
        <ele>166</ele>
        <time>2017-02-28T17:56:56Z</time>
      </trkpt>
      <trkpt lat="45.72031" lon="4.89963">
        <ele>165</ele>
        <time>2017-02-28T17:57:04Z</time>
      </trkpt>
      <trkpt lat="45.72032" lon="4.89925">
        <ele>167</ele>
        <time>2017-02-28T17:57:11Z</time>
      </trkpt>
      <trkpt lat="45.7203" lon="4.8989">
        <ele>168</ele>
        <time>2017-02-28T17:57:18Z</time>
      </trkpt>
      <trkpt lat="45.72031" lon="4.89864">
        <ele>167</ele>
        <time>2017-02-28T17:57:22Z</time>
      </trkpt>
      <trkpt lat="45.72004" lon="4.89847">
        <ele>171</ele>
        <time>2017-02-28T17:57:29Z</time>
      </trkpt>
      <trkpt lat="45.71989" lon="4.89839">
        <ele>170</ele>
        <time>2017-02-28T17:57:32Z</time>
      </trkpt>
      <trkpt lat="45.7195" lon="4.89846">
        <ele>178</ele>
        <time>2017-02-28T17:57:42Z</time>
      </trkpt>
      <trkpt lat="45.71948" lon="4.89842">
        <ele>177</ele>
        <time>2017-02-28T17:57:44Z</time>
      </trkpt>
      <trkpt lat="45.71925" lon="4.89843">
        <ele>174</ele>
        <time>2017-02-28T17:57:50Z</time>
      </trkpt>
      <trkpt lat="45.719" lon="4.89854">
        <ele>175</ele>
        <time>2017-02-28T17:57:57Z</time>
      </trkpt>
      <trkpt lat="45.71889" lon="4.89857">
        <ele>177</ele>
        <time>2017-02-28T17:58:02Z</time>
      </trkpt>
      <trkpt lat="45.71869" lon="4.89861">
        <ele>182</ele>
        <time>2017-02-28T17:58:08Z</time>
      </trkpt>
      <trkpt lat="45.7184" lon="4.89881">
        <ele>183</ele>
        <time>2017-02-28T17:58:17Z</time>
      </trkpt>
      <trkpt lat="45.71814" lon="4.89899">
        <ele>183</ele>
        <time>2017-02-28T17:58:23Z</time>
      </trkpt>
      <trkpt lat="45.7179" lon="4.89919">
        <ele>182</ele>
        <time>2017-02-28T17:58:31Z</time>
      </trkpt>
      <trkpt lat="45.71787" lon="4.89916">
        <ele>179</ele>
        <time>2017-02-28T17:58:33Z</time>
      </trkpt>
      <trkpt lat="45.71821" lon="4.89905">
        <ele>170</ele>
        <time>2017-02-28T17:58:41Z</time>
      </trkpt>
      <trkpt lat="45.71837" lon="4.89899">
        <ele>169</ele>
        <time>2017-02-28T17:58:44Z</time>
      </trkpt>
      <trkpt lat="45.71889" lon="4.89894">
        <ele>154</ele>
        <time>2017-02-28T17:58:55Z</time>
      </trkpt>
      <trkpt lat="45.71892" lon="4.89896">
        <ele>154</ele>
        <time>2017-02-28T17:58:56Z</time>
      </trkpt>
      <trkpt lat="45.71915" lon="4.89898">
        <ele>149</ele>
        <time>2017-02-28T17:59:02Z</time>
      </trkpt>
      <trkpt lat="45.71948" lon="4.89939">
        <ele>149</ele>
        <time>2017-02-28T17:59:12Z</time>
      </trkpt>
      <trkpt lat="45.71947" lon="4.89949">
        <ele>152</ele>
        <time>2017-02-28T17:59:14Z</time>
      </trkpt>
      <trkpt lat="45.71952" lon="4.9">
        <ele>155</ele>
        <time>2017-02-28T17:59:24Z</time>
      </trkpt>
      <trkpt lat="45.71957" lon="4.90009">
        <ele>155</ele>
        <time>2017-02-28T17:59:26Z</time>
      </trkpt>
      <trkpt lat="45.71959" lon="4.90039">
        <ele>149</ele>
        <time>2017-02-28T17:59:32Z</time>
      </trkpt>
      <trkpt lat="45.71952" lon="4.90098">
        <ele>149</ele>
        <time>2017-02-28T17:59:43Z</time>
      </trkpt>
      <trkpt lat="45.71953" lon="4.90111">
        <ele>151</ele>
        <time>2017-02-28T17:59:46Z</time>
      </trkpt>
      <trkpt lat="45.71953" lon="4.90129">
        <ele>150</ele>
        <time>2017-02-28T17:59:50Z</time>
      </trkpt>
      <trkpt lat="45.71958" lon="4.90182">
        <ele>153</ele>
        <time>2017-02-28T18:00:01Z</time>
      </trkpt>
      <trkpt lat="45.71958" lon="4.90185">
        <ele>153</ele>
        <time>2017-02-28T18:00:02Z</time>
      </trkpt>
      <trkpt lat="45.71961" lon="4.9021">
        <ele>156</ele>
        <time>2017-02-28T18:00:08Z</time>
      </trkpt>
      <trkpt lat="45.71983" lon="4.90241">
        <ele>155</ele>
        <time>2017-02-28T18:00:14Z</time>
      </trkpt>
      <trkpt lat="45.7198" lon="4.90267">
        <ele>155</ele>
        <time>2017-02-28T18:00:20Z</time>
      </trkpt>
      <trkpt lat="45.71968" lon="4.90297">
        <ele>155</ele>
        <time>2017-02-28T18:00:26Z</time>
      </trkpt>
    </trkseg>
  </trk>
  <trk>
    <name><![CDATA[Sequence 3]]></name>
    <trkseg>
      <trkpt lat="45.71887" lon="4.90604">
        <ele>154</ele>
        <time>2017-02-28T18:01:54Z</time>
      </trkpt>
      <trkpt lat="45.71893" lon="4.90613">
        <ele>161</ele>
        <time>2017-02-28T18:01:56Z</time>
      </trkpt>
      <trkpt lat="45.719" lon="4.90638">
        <ele>159</ele>
        <time>2017-02-28T18:02:01Z</time>
      </trkpt>
      <trkpt lat="45.71915" lon="4.9067">
        <ele>158</ele>
        <time>2017-02-28T18:02:10Z</time>
      </trkpt>
      <trkpt lat="45.71916" lon="4.907">
        <ele>155</ele>
        <time>2017-02-28T18:02:18Z</time>
      </trkpt>
      <trkpt lat="45.71918" lon="4.90705">
        <ele>155</ele>
        <time>2017-02-28T18:02:19Z</time>
      </trkpt>
      <trkpt lat="45.71936" lon="4.90748">
        <ele>154</ele>
        <time>2017-02-28T18:02:30Z</time>
      </trkpt>
      <trkpt lat="45.71936" lon="4.90754">
        <ele>154</ele>
        <time>2017-02-28T18:02:31Z</time>
      </trkpt>
      <trkpt lat="45.7194" lon="4.90793">
        <ele>154</ele>
        <time>2017-02-28T18:02:37Z</time>
      </trkpt>
      <trkpt lat="45.71937" lon="4.90838">
        <ele>158</ele>
        <time>2017-02-28T18:02:48Z</time>
      </trkpt>
      <trkpt lat="45.71901" lon="4.90814">
        <ele>165</ele>
        <time>2017-02-28T18:02:58Z</time>
      </trkpt>
      <trkpt lat="45.71897" lon="4.90807">
        <ele>165</ele>
        <time>2017-02-28T18:03:01Z</time>
      </trkpt>
      <trkpt lat="45.71887" lon="4.90789">
        <ele>165</ele>
        <time>2017-02-28T18:03:07Z</time>
      </trkpt>
      <trkpt lat="45.71868" lon="4.90763">
        <ele>167</ele>
        <time>2017-02-28T18:03:13Z</time>
      </trkpt>
      <trkpt lat="45.71863" lon="4.90727">
        <ele>162</ele>
        <time>2017-02-28T18:03:19Z</time>
      </trkpt>
      <trkpt lat="45.71849" lon="4.90693">
        <ele>163</ele>
        <time>2017-02-28T18:03:25Z</time>
      </trkpt>
      <trkpt lat="45.71831" lon="4.90639">
        <ele>160</ele>
        <time>2017-02-28T18:03:36Z</time>
      </trkpt>
      <trkpt lat="45.71829" lon="4.90629">
        <ele>162</ele>
        <time>2017-02-28T18:03:38Z</time>
      </trkpt>
      <trkpt lat="45.71752" lon="4.90471">
        <ele>160</ele>
        <time>2017-02-28T18:04:24Z</time>
      </trkpt>
      <trkpt lat="45.71695" lon="4.90485">
        <ele>169</ele>
        <time>2017-02-28T18:04:36Z</time>
      </trkpt>
      <trkpt lat="45.71664" lon="4.90466">
        <ele>173</ele>
        <time>2017-02-28T18:04:43Z</time>
      </trkpt>
      <trkpt lat="45.71608" lon="4.90418">
        <ele>183</ele>
        <time>2017-02-28T18:05:02Z</time>
      </trkpt>
      <trkpt lat="45.71594" lon="4.90402">
        <ele>184</ele>
        <time>2017-02-28T18:05:07Z</time>
      </trkpt>
      <trkpt lat="45.7152" lon="4.90354">
        <ele>187</ele>
        <time>2017-02-28T18:05:30Z</time>
      </trkpt>
      <trkpt lat="45.71507" lon="4.90362">
        <ele>184</ele>
        <time>2017-02-28T18:05:33Z</time>
      </trkpt>
      <trkpt lat="45.71497" lon="4.90357">
        <ele>189</ele>
        <time>2017-02-28T18:05:38Z</time>
      </trkpt>
      <trkpt lat="45.71484" lon="4.90352">
        <ele>193</ele>
        <time>2017-02-28T18:05:43Z</time>
      </trkpt>
      <trkpt lat="45.71479" lon="4.90337">
        <ele>196</ele>
        <time>2017-02-28T18:05:50Z</time>
      </trkpt>
      <trkpt lat="45.71478" lon="4.90276">
        <ele>185</ele>
        <time>2017-02-28T18:05:59Z</time>
      </trkpt>
      <trkpt lat="45.71472" lon="4.90219">
        <ele>181</ele>
        <time>2017-02-28T18:06:11Z</time>
      </trkpt>
      <trkpt lat="45.71463" lon="4.90093">
        <ele>174</ele>
        <time>2017-02-28T18:06:31Z</time>
      </trkpt>
      <trkpt lat="45.71464" lon="4.90081">
        <ele>174</ele>
        <time>2017-02-28T18:06:33Z</time>
      </trkpt>
      <trkpt lat="45.71484" lon="4.89946">
        <ele>174</ele>
        <time>2017-02-28T18:07:05Z</time>
      </trkpt>
      <trkpt lat="45.71485" lon="4.89871">
        <ele>176</ele>
        <time>2017-02-28T18:07:18Z</time>
      </trkpt>
      <trkpt lat="45.71487" lon="4.89868">
        <ele>176</ele>
        <time>2017-02-28T18:07:19Z</time>
      </trkpt>
      <trkpt lat="45.71487" lon="4.89808">
        <ele>170</ele>
        <time>2017-02-28T18:07:31Z</time>
      </trkpt>
      <trkpt lat="45.71498" lon="4.89802">
        <ele>171</ele>
        <time>2017-02-28T18:07:35Z</time>
      </trkpt>
      <trkpt lat="45.71507" lon="4.8979">
        <ele>168</ele>
        <time>2017-02-28T18:07:38Z</time>
      </trkpt>
      <trkpt lat="45.71531" lon="4.8977">
        <ele>168</ele>
        <time>2017-02-28T18:07:46Z</time>
      </trkpt>
      <trkpt lat="45.71546" lon="4.8975">
        <ele>169</ele>
        <time>2017-02-28T18:07:51Z</time>
      </trkpt>
      <trkpt lat="45.71555" lon="4.89726">
        <ele>171</ele>
        <time>2017-02-28T18:07:56Z</time>
      </trkpt>
      <trkpt lat="45.71576" lon="4.89664">
        <ele>177</ele>
        <time>2017-02-28T18:08:06Z</time>
      </trkpt>
      <trkpt lat="45.71581" lon="4.89651">
        <ele>181</ele>
        <time>2017-02-28T18:08:08Z</time>
      </trkpt>
      <trkpt lat="45.71595" lon="4.89627">
        <ele>176</ele>
        <time>2017-02-28T18:08:19Z</time>
      </trkpt>
      <trkpt lat="45.71595" lon="4.89627">
        <ele>175</ele>
        <time>2017-02-28T18:08:21Z</time>
      </trkpt>
    </trkseg>
  </trk>
  <trk>
    <name><![CDATA[Sequence 4]]></name>
    <trkseg>
      <trkpt lat="45.71598" lon="4.89627">
        <ele>176</ele>
        <time>2017-02-28T18:08:37Z</time>
      </trkpt>
      <trkpt lat="45.71598" lon="4.89627">
        <ele>179</ele>
        <time>2017-02-28T18:08:41Z</time>
      </trkpt>
    </trkseg>
  </trk>
</gpx>